sensor_id;sensor_type;location;lat;lon;timestamp;P1;durP1;ratioP1;P2;durP2;ratioP2
72117;SDS011;59992;47.490;8.736;2023-01-23T00:00:27;13.90;;;6.40;;
72117;SDS011;59992;47.490;8.736;2023-01-23T00:02:56;12.90;;;6.40;;
72117;SDS011;59992;47.490;8.736;2023-01-23T00:05:26;13.40;;;6.20;;
72117;SDS011;59992;47.490;8.736;2023-01-23T00:07:55;13.10;;;6.60;;
72117;SDS011;59992;47.490;8.736;2023-01-23T00:10:25;12.40;;;6.50;;
72117;SDS011;59992;47.490;8.736;2023-01-23T00:12:55;12.90;;;6.80;;
72117;SDS011;59992;47.490;8.736;2023-01-23T00:15:25;13.70;;;6.60;;
72117;SDS011;59992;47.490;8.736;2023-01-23T00:17:54;14.60;;;6.60;;
72117;SDS011;59992;47.490;8.736;2023-01-23T00:20:24;12.60;;;6.40;;
72117;SDS011;59992;47.490;8.736;2023-01-23T00:22:54;14.30;;;6.90;;
72117;SDS011;59992;47.490;8.736;2023-01-23T00:25:24;12.50;;;6.70;;
72117;SDS011;59992;47.490;8.736;2023-01-23T00:27:53;13.70;;;6.70;;
72117;SDS011;59992;47.490;8.736;2023-01-23T00:30:23;14.10;;;6.20;;
72117;SDS011;59992;47.490;8.736;2023-01-23T00:32:53;14.60;;;6.70;;
72117;SDS011;59992;47.490;8.736;2023-01-23T00:35:22;15.70;;;7.60;;
72117;SDS011;59992;47.490;8.736;2023-01-23T00:37:52;14.00;;;6.90;;
72117;SDS011;59992;47.490;8.736;2023-01-23T00:40:22;14.60;;;6.40;;
72117;SDS011;59992;47.490;8.736;2023-01-23T00:42:51;14.50;;;6.80;;
72117;SDS011;59992;47.490;8.736;2023-01-23T00:45:21;14.20;;;7.40;;
72117;SDS011;59992;47.490;8.736;2023-01-23T00:47:50;12.40;;;6.90;;
72117;SDS011;59992;47.490;8.736;2023-01-23T00:50:20;14.30;;;7.00;;
72117;SDS011;59992;47.490;8.736;2023-01-23T00:52:49;15.40;;;7.60;;
72117;SDS011;59992;47.490;8.736;2023-01-23T00:55:22;15.20;;;6.80;;
72117;SDS011;59992;47.490;8.736;2023-01-23T00:57:51;15.90;;;7.50;;
72117;SDS011;59992;47.490;8.736;2023-01-23T01:00:21;14.60;;;7.00;;
72117;SDS011;59992;47.490;8.736;2023-01-23T01:02:51;14.40;;;7.30;;
72117;SDS011;59992;47.490;8.736;2023-01-23T01:05:21;17.50;;;7.60;;
72117;SDS011;59992;47.490;8.736;2023-01-23T01:07:51;16.50;;;7.80;;
72117;SDS011;59992;47.490;8.736;2023-01-23T01:10:20;14.70;;;7.30;;
72117;SDS011;59992;47.490;8.736;2023-01-23T01:12:55;14.80;;;7.80;;
72117;SDS011;59992;47.490;8.736;2023-01-23T01:15:26;15.30;;;7.80;;
72117;SDS011;59992;47.490;8.736;2023-01-23T01:17:57;15.50;;;7.30;;
72117;SDS011;59992;47.490;8.736;2023-01-23T01:20:27;15.70;;;6.90;;
72117;SDS011;59992;47.490;8.736;2023-01-23T01:22:56;20.00;;;7.80;;
72117;SDS011;59992;47.490;8.736;2023-01-23T01:25:27;15.10;;;7.70;;
72117;SDS011;59992;47.490;8.736;2023-01-23T01:27:58;15.70;;;7.30;;
72117;SDS011;59992;47.490;8.736;2023-01-23T01:30:29;14.90;;;7.80;;
72117;SDS011;59992;47.490;8.736;2023-01-23T01:33:00;14.50;;;7.20;;
72117;SDS011;59992;47.490;8.736;2023-01-23T01:35:30;17.00;;;7.80;;
72117;SDS011;59992;47.490;8.736;2023-01-23T01:38:02;18.70;;;7.40;;
72117;SDS011;59992;47.490;8.736;2023-01-23T01:40:33;16.50;;;7.90;;
72117;SDS011;59992;47.490;8.736;2023-01-23T01:43:04;17.70;;;8.30;;
72117;SDS011;59992;47.490;8.736;2023-01-23T01:48:34;17.00;;;8.10;;
72117;SDS011;59992;47.490;8.736;2023-01-23T01:51:08;19.40;;;8.80;;
72117;SDS011;59992;47.490;8.736;2023-01-23T01:53:45;17.50;;;8.50;;
72117;SDS011;59992;47.490;8.736;2023-01-23T01:56:17;19.00;;;8.70;;
72117;SDS011;59992;47.490;8.736;2023-01-23T01:58:48;17.40;;;8.30;;
72117;SDS011;59992;47.490;8.736;2023-01-23T02:01:20;18.90;;;9.00;;
72117;SDS011;59992;47.490;8.736;2023-01-23T02:03:50;17.90;;;8.60;;
72117;SDS011;59992;47.490;8.736;2023-01-23T02:06:22;18.20;;;8.70;;
72117;SDS011;59992;47.490;8.736;2023-01-23T02:08:54;18.00;;;8.50;;
72117;SDS011;59992;47.490;8.736;2023-01-23T02:11:29;19.80;;;9.20;;
72117;SDS011;59992;47.490;8.736;2023-01-23T02:14:00;15.40;;;7.50;;
72117;SDS011;59992;47.490;8.736;2023-01-23T02:16:30;22.10;;;9.10;;
72117;SDS011;59992;47.490;8.736;2023-01-23T02:19:11;19.10;;;8.60;;
72117;SDS011;59992;47.490;8.736;2023-01-23T02:21:52;17.70;;;7.60;;
72117;SDS011;59992;47.490;8.736;2023-01-23T02:24:28;15.50;;;7.50;;
72117;SDS011;59992;47.490;8.736;2023-01-23T02:27:03;18.20;;;7.80;;
72117;SDS011;59992;47.490;8.736;2023-01-23T02:29:40;18.30;;;8.00;;
72117;SDS011;59992;47.490;8.736;2023-01-23T02:32:14;17.10;;;7.90;;
72117;SDS011;59992;47.490;8.736;2023-01-23T02:34:45;18.70;;;9.00;;
72117;SDS011;59992;47.490;8.736;2023-01-23T02:37:15;18.20;;;8.80;;
72117;SDS011;59992;47.490;8.736;2023-01-23T02:39:45;19.40;;;8.80;;
72117;SDS011;59992;47.490;8.736;2023-01-23T02:42:15;18.10;;;8.90;;
72117;SDS011;59992;47.490;8.736;2023-01-23T02:44:46;19.90;;;9.40;;
72117;SDS011;59992;47.490;8.736;2023-01-23T02:47:19;18.00;;;9.00;;
72117;SDS011;59992;47.490;8.736;2023-01-23T02:49:49;19.20;;;9.30;;
72117;SDS011;59992;47.490;8.736;2023-01-23T02:52:20;18.90;;;8.60;;
72117;SDS011;59992;47.490;8.736;2023-01-23T02:54:51;18.90;;;8.60;;
72117;SDS011;59992;47.490;8.736;2023-01-23T02:57:21;17.00;;;8.10;;
72117;SDS011;59992;47.490;8.736;2023-01-23T02:59:51;18.20;;;9.00;;
72117;SDS011;59992;47.490;8.736;2023-01-23T03:02:38;22.50;;;9.90;;
72117;SDS011;59992;47.490;8.736;2023-01-23T03:05:09;16.80;;;8.00;;
72117;SDS011;59992;47.490;8.736;2023-01-23T03:07:40;18.50;;;8.30;;
72117;SDS011;59992;47.490;8.736;2023-01-23T03:10:10;19.60;;;8.80;;
72117;SDS011;59992;47.490;8.736;2023-01-23T03:12:41;18.50;;;8.70;;
72117;SDS011;59992;47.490;8.736;2023-01-23T03:15:11;19.10;;;8.70;;
72117;SDS011;59992;47.490;8.736;2023-01-23T03:17:41;21.80;;;8.90;;
72117;SDS011;59992;47.490;8.736;2023-01-23T03:20:19;18.80;;;8.70;;
72117;SDS011;59992;47.490;8.736;2023-01-23T03:22:52;18.30;;;9.00;;
72117;SDS011;59992;47.490;8.736;2023-01-23T03:25:22;18.60;;;8.60;;
72117;SDS011;59992;47.490;8.736;2023-01-23T03:27:52;21.10;;;8.20;;
72117;SDS011;59992;47.490;8.736;2023-01-23T03:30:22;20.80;;;9.20;;
72117;SDS011;59992;47.490;8.736;2023-01-23T03:32:52;18.90;;;8.80;;
72117;SDS011;59992;47.490;8.736;2023-01-23T03:35:22;19.40;;;9.10;;
72117;SDS011;59992;47.490;8.736;2023-01-23T03:37:51;18.90;;;8.60;;
72117;SDS011;59992;47.490;8.736;2023-01-23T03:40:22;16.10;;;7.40;;
72117;SDS011;59992;47.490;8.736;2023-01-23T03:43:09;17.90;;;7.80;;
72117;SDS011;59992;47.490;8.736;2023-01-23T03:45:39;16.30;;;8.00;;
72117;SDS011;59992;47.490;8.736;2023-01-23T03:48:09;18.40;;;8.30;;
72117;SDS011;59992;47.490;8.736;2023-01-23T03:50:41;20.00;;;8.40;;
72117;SDS011;59992;47.490;8.736;2023-01-23T03:53:11;16.90;;;8.20;;
72117;SDS011;59992;47.490;8.736;2023-01-23T03:55:40;18.10;;;8.30;;
72117;SDS011;59992;47.490;8.736;2023-01-23T03:58:13;18.50;;;7.90;;
72117;SDS011;59992;47.490;8.736;2023-01-23T04:00:42;17.40;;;7.40;;
72117;SDS011;59992;47.490;8.736;2023-01-23T04:03:13;16.90;;;6.90;;
72117;SDS011;59992;47.490;8.736;2023-01-23T04:05:43;15.80;;;6.90;;
72117;SDS011;59992;47.490;8.736;2023-01-23T04:08:12;21.70;;;8.70;;
72117;SDS011;59992;47.490;8.736;2023-01-23T04:10:41;17.90;;;8.10;;
72117;SDS011;59992;47.490;8.736;2023-01-23T04:13:11;18.70;;;9.40;;
72117;SDS011;59992;47.490;8.736;2023-01-23T04:15:42;18.80;;;9.00;;
72117;SDS011;59992;47.490;8.736;2023-01-23T04:18:11;18.50;;;8.40;;
72117;SDS011;59992;47.490;8.736;2023-01-23T04:20:43;20.00;;;8.20;;
72117;SDS011;59992;47.490;8.736;2023-01-23T04:23:14;16.20;;;7.20;;
72117;SDS011;59992;47.490;8.736;2023-01-23T04:25:44;17.20;;;8.00;;
72117;SDS011;59992;47.490;8.736;2023-01-23T04:28:14;17.30;;;8.10;;
72117;SDS011;59992;47.490;8.736;2023-01-23T04:30:44;18.30;;;8.10;;
72117;SDS011;59992;47.490;8.736;2023-01-23T04:33:15;18.00;;;7.10;;
72117;SDS011;59992;47.490;8.736;2023-01-23T04:35:53;17.80;;;8.00;;
72117;SDS011;59992;47.490;8.736;2023-01-23T04:38:38;21.20;;;8.60;;
72117;SDS011;59992;47.490;8.736;2023-01-23T04:41:08;18.00;;;9.10;;
72117;SDS011;59992;47.490;8.736;2023-01-23T04:43:42;19.70;;;8.30;;
72117;SDS011;59992;47.490;8.736;2023-01-23T04:46:12;14.00;;;6.60;;
72117;SDS011;59992;47.490;8.736;2023-01-23T04:48:41;17.90;;;7.60;;
72117;SDS011;59992;47.490;8.736;2023-01-23T04:51:11;17.20;;;8.00;;
72117;SDS011;59992;47.490;8.736;2023-01-23T04:53:42;17.50;;;7.80;;
72117;SDS011;59992;47.490;8.736;2023-01-23T04:56:11;16.10;;;8.00;;
72117;SDS011;59992;47.490;8.736;2023-01-23T04:58:41;17.40;;;9.20;;
72117;SDS011;59992;47.490;8.736;2023-01-23T05:01:11;15.40;;;7.80;;
72117;SDS011;59992;47.490;8.736;2023-01-23T05:03:41;16.50;;;8.20;;
72117;SDS011;59992;47.490;8.736;2023-01-23T05:06:11;16.90;;;7.20;;
72117;SDS011;59992;47.490;8.736;2023-01-23T05:08:41;17.20;;;7.80;;
72117;SDS011;59992;47.490;8.736;2023-01-23T05:11:11;17.70;;;8.40;;
72117;SDS011;59992;47.490;8.736;2023-01-23T05:13:41;19.40;;;8.20;;
72117;SDS011;59992;47.490;8.736;2023-01-23T05:16:10;15.60;;;7.50;;
72117;SDS011;59992;47.490;8.736;2023-01-23T05:18:41;18.90;;;8.10;;
72117;SDS011;59992;47.490;8.736;2023-01-23T05:21:11;16.20;;;7.20;;
72117;SDS011;59992;47.490;8.736;2023-01-23T05:23:41;14.80;;;6.90;;
72117;SDS011;59992;47.490;8.736;2023-01-23T05:26:11;16.70;;;7.90;;
72117;SDS011;59992;47.490;8.736;2023-01-23T05:28:41;15.80;;;7.60;;
72117;SDS011;59992;47.490;8.736;2023-01-23T05:31:12;17.20;;;7.50;;
72117;SDS011;59992;47.490;8.736;2023-01-23T05:33:41;16.80;;;7.10;;
72117;SDS011;59992;47.490;8.736;2023-01-23T05:36:11;14.60;;;6.70;;
72117;SDS011;59992;47.490;8.736;2023-01-23T05:38:41;16.00;;;7.60;;
72117;SDS011;59992;47.490;8.736;2023-01-23T05:41:11;16.60;;;7.90;;
72117;SDS011;59992;47.490;8.736;2023-01-23T05:43:41;15.80;;;7.60;;
72117;SDS011;59992;47.490;8.736;2023-01-23T05:46:11;15.90;;;7.20;;
72117;SDS011;59992;47.490;8.736;2023-01-23T05:48:41;15.40;;;7.20;;
72117;SDS011;59992;47.490;8.736;2023-01-23T05:51:11;15.30;;;7.80;;
72117;SDS011;59992;47.490;8.736;2023-01-23T05:53:42;15.20;;;7.20;;
72117;SDS011;59992;47.490;8.736;2023-01-23T05:56:12;14.80;;;7.10;;
72117;SDS011;59992;47.490;8.736;2023-01-23T05:58:43;15.70;;;7.90;;
72117;SDS011;59992;47.490;8.736;2023-01-23T06:01:12;18.60;;;8.50;;
72117;SDS011;59992;47.490;8.736;2023-01-23T06:03:42;14.10;;;7.50;;
72117;SDS011;59992;47.490;8.736;2023-01-23T06:06:13;17.10;;;7.70;;
72117;SDS011;59992;47.490;8.736;2023-01-23T06:08:43;14.20;;;6.90;;
72117;SDS011;59992;47.490;8.736;2023-01-23T06:11:13;12.10;;;5.50;;
72117;SDS011;59992;47.490;8.736;2023-01-23T06:13:42;16.10;;;8.40;;
72117;SDS011;59992;47.490;8.736;2023-01-23T06:16:12;15.60;;;7.90;;
72117;SDS011;59992;47.490;8.736;2023-01-23T06:18:41;10.60;;;5.20;;
72117;SDS011;59992;47.490;8.736;2023-01-23T06:21:11;17.70;;;8.30;;
72117;SDS011;59992;47.490;8.736;2023-01-23T06:23:41;15.80;;;7.60;;
72117;SDS011;59992;47.490;8.736;2023-01-23T06:26:12;17.50;;;7.20;;
72117;SDS011;59992;47.490;8.736;2023-01-23T06:28:41;14.70;;;7.30;;
72117;SDS011;59992;47.490;8.736;2023-01-23T06:31:11;14.00;;;7.50;;
72117;SDS011;59992;47.490;8.736;2023-01-23T06:33:40;12.90;;;6.40;;
72117;SDS011;59992;47.490;8.736;2023-01-23T06:36:10;14.40;;;6.00;;
72117;SDS011;59992;47.490;8.736;2023-01-23T06:38:39;15.40;;;6.90;;
72117;SDS011;59992;47.490;8.736;2023-01-23T06:41:24;12.90;;;6.40;;
72117;SDS011;59992;47.490;8.736;2023-01-23T06:44:12;14.00;;;6.30;;
72117;SDS011;59992;47.490;8.736;2023-01-23T06:46:42;16.60;;;7.30;;
72117;SDS011;59992;47.490;8.736;2023-01-23T06:49:12;13.90;;;6.40;;
72117;SDS011;59992;47.490;8.736;2023-01-23T06:51:41;19.70;;;7.90;;
72117;SDS011;59992;47.490;8.736;2023-01-23T06:54:12;17.30;;;8.50;;
72117;SDS011;59992;47.490;8.736;2023-01-23T06:56:43;18.70;;;9.00;;
72117;SDS011;59992;47.490;8.736;2023-01-23T06:59:13;19.60;;;9.10;;
72117;SDS011;59992;47.490;8.736;2023-01-23T07:01:42;19.50;;;8.60;;
72117;SDS011;59992;47.490;8.736;2023-01-23T07:04:12;20.00;;;8.60;;
72117;SDS011;59992;47.490;8.736;2023-01-23T07:06:42;20.80;;;8.00;;
72117;SDS011;59992;47.490;8.736;2023-01-23T07:09:16;18.70;;;8.50;;
72117;SDS011;59992;47.490;8.736;2023-01-23T07:11:46;17.10;;;7.90;;
72117;SDS011;59992;47.490;8.736;2023-01-23T07:14:16;23.40;;;9.10;;
72117;SDS011;59992;47.490;8.736;2023-01-23T07:16:45;19.60;;;8.60;;
72117;SDS011;59992;47.490;8.736;2023-01-23T07:19:15;20.10;;;10.00;;
72117;SDS011;59992;47.490;8.736;2023-01-23T07:21:44;17.00;;;8.10;;
72117;SDS011;59992;47.490;8.736;2023-01-23T07:24:19;18.70;;;8.40;;
72117;SDS011;59992;47.490;8.736;2023-01-23T07:26:49;17.90;;;8.30;;
72117;SDS011;59992;47.490;8.736;2023-01-23T07:29:19;16.60;;;7.80;;
72117;SDS011;59992;47.490;8.736;2023-01-23T07:31:48;17.90;;;8.10;;
72117;SDS011;59992;47.490;8.736;2023-01-23T07:34:19;17.30;;;7.90;;
72117;SDS011;59992;47.490;8.736;2023-01-23T07:36:48;14.30;;;7.10;;
72117;SDS011;59992;47.490;8.736;2023-01-23T07:39:19;17.20;;;7.00;;
72117;SDS011;59992;47.490;8.736;2023-01-23T07:41:49;16.70;;;7.60;;
72117;SDS011;59992;47.490;8.736;2023-01-23T07:44:19;19.30;;;8.50;;
72117;SDS011;59992;47.490;8.736;2023-01-23T07:46:50;16.50;;;7.90;;
72117;SDS011;59992;47.490;8.736;2023-01-23T07:49:20;15.20;;;7.30;;
72117;SDS011;59992;47.490;8.736;2023-01-23T07:51:51;13.30;;;6.90;;
72117;SDS011;59992;47.490;8.736;2023-01-23T07:54:20;12.40;;;5.90;;
72117;SDS011;59992;47.490;8.736;2023-01-23T07:56:50;16.40;;;6.90;;
72117;SDS011;59992;47.490;8.736;2023-01-23T07:59:22;13.90;;;7.00;;
72117;SDS011;59992;47.490;8.736;2023-01-23T08:01:52;15.20;;;7.30;;
72117;SDS011;59992;47.490;8.736;2023-01-23T08:04:22;14.20;;;6.50;;
72117;SDS011;59992;47.490;8.736;2023-01-23T08:06:52;17.00;;;7.40;;
72117;SDS011;59992;47.490;8.736;2023-01-23T08:09:22;14.10;;;6.30;;
72117;SDS011;59992;47.490;8.736;2023-01-23T08:11:52;13.70;;;6.10;;
72117;SDS011;59992;47.490;8.736;2023-01-23T08:14:21;12.30;;;6.00;;
72117;SDS011;59992;47.490;8.736;2023-01-23T08:16:51;13.30;;;6.30;;
72117;SDS011;59992;47.490;8.736;2023-01-23T08:19:21;14.30;;;6.40;;
72117;SDS011;59992;47.490;8.736;2023-01-23T08:21:54;15.40;;;7.00;;
72117;SDS011;59992;47.490;8.736;2023-01-23T08:24:23;15.60;;;6.70;;
72117;SDS011;59992;47.490;8.736;2023-01-23T08:26:53;14.10;;;6.20;;
72117;SDS011;59992;47.490;8.736;2023-01-23T08:29:22;14.40;;;6.70;;
72117;SDS011;59992;47.490;8.736;2023-01-23T08:31:53;13.00;;;6.20;;
72117;SDS011;59992;47.490;8.736;2023-01-23T08:34:23;14.10;;;6.40;;
72117;SDS011;59992;47.490;8.736;2023-01-23T08:36:52;14.80;;;6.90;;
72117;SDS011;59992;47.490;8.736;2023-01-23T08:39:22;14.20;;;7.20;;
72117;SDS011;59992;47.490;8.736;2023-01-23T08:41:51;14.40;;;7.50;;
72117;SDS011;59992;47.490;8.736;2023-01-23T08:44:20;16.40;;;6.80;;
72117;SDS011;59992;47.490;8.736;2023-01-23T08:46:50;14.80;;;7.30;;
72117;SDS011;59992;47.490;8.736;2023-01-23T08:49:20;16.70;;;8.30;;
72117;SDS011;59992;47.490;8.736;2023-01-23T08:51:49;16.20;;;7.40;;
72117;SDS011;59992;47.490;8.736;2023-01-23T08:54:19;13.60;;;6.60;;
72117;SDS011;59992;47.490;8.736;2023-01-23T08:56:48;15.00;;;7.20;;
72117;SDS011;59992;47.490;8.736;2023-01-23T08:59:18;15.10;;;6.80;;
72117;SDS011;59992;47.490;8.736;2023-01-23T09:01:48;17.50;;;7.80;;
72117;SDS011;59992;47.490;8.736;2023-01-23T09:04:17;19.20;;;8.30;;
72117;SDS011;59992;47.490;8.736;2023-01-23T09:06:47;17.20;;;8.40;;
72117;SDS011;59992;47.490;8.736;2023-01-23T09:09:16;18.30;;;8.10;;
72117;SDS011;59992;47.490;8.736;2023-01-23T09:11:47;16.10;;;7.10;;
72117;SDS011;59992;47.490;8.736;2023-01-23T09:14:16;14.50;;;7.00;;
72117;SDS011;59992;47.490;8.736;2023-01-23T09:16:47;16.20;;;6.90;;
72117;SDS011;59992;47.490;8.736;2023-01-23T09:19:17;18.00;;;7.80;;
72117;SDS011;59992;47.490;8.736;2023-01-23T09:21:47;18.30;;;8.60;;
72117;SDS011;59992;47.490;8.736;2023-01-23T09:24:19;17.80;;;8.50;;
72117;SDS011;59992;47.490;8.736;2023-01-23T09:26:49;14.90;;;6.80;;
72117;SDS011;59992;47.490;8.736;2023-01-23T09:29:21;16.20;;;7.90;;
72117;SDS011;59992;47.490;8.736;2023-01-23T09:31:51;19.40;;;8.10;;
72117;SDS011;59992;47.490;8.736;2023-01-23T09:34:21;18.30;;;7.80;;
72117;SDS011;59992;47.490;8.736;2023-01-23T09:36:50;20.40;;;9.30;;
72117;SDS011;59992;47.490;8.736;2023-01-23T09:39:20;17.10;;;7.60;;
72117;SDS011;59992;47.490;8.736;2023-01-23T09:41:52;19.60;;;8.60;;
72117;SDS011;59992;47.490;8.736;2023-01-23T09:44:24;18.70;;;8.50;;
72117;SDS011;59992;47.490;8.736;2023-01-23T09:47:04;20.00;;;9.60;;
72117;SDS011;59992;47.490;8.736;2023-01-23T09:49:40;17.20;;;7.80;;
72117;SDS011;59992;47.490;8.736;2023-01-23T09:52:16;19.60;;;8.30;;
72117;SDS011;59992;47.490;8.736;2023-01-23T09:54:50;19.60;;;8.40;;
72117;SDS011;59992;47.490;8.736;2023-01-23T09:57:25;20.50;;;8.90;;
72117;SDS011;59992;47.490;8.736;2023-01-23T10:00:03;19.60;;;8.60;;
72117;SDS011;59992;47.490;8.736;2023-01-23T10:02:39;21.60;;;9.10;;
72117;SDS011;59992;47.490;8.736;2023-01-23T10:05:13;20.00;;;9.30;;
72117;SDS011;59992;47.490;8.736;2023-01-23T10:07:46;17.90;;;8.10;;
72117;SDS011;59992;47.490;8.736;2023-01-23T10:10:44;19.80;;;8.40;;
72117;SDS011;59992;47.490;8.736;2023-01-23T10:13:21;19.80;;;8.70;;
72117;SDS011;59992;47.490;8.736;2023-01-23T10:16:04;22.70;;;9.20;;
72117;SDS011;59992;47.490;8.736;2023-01-23T10:18:59;20.60;;;8.40;;
72117;SDS011;59992;47.490;8.736;2023-01-23T10:21:37;21.60;;;8.80;;
72117;SDS011;59992;47.490;8.736;2023-01-23T10:24:19;21.40;;;9.00;;
72117;SDS011;59992;47.490;8.736;2023-01-23T10:27:10;21.80;;;9.50;;
72117;SDS011;59992;47.490;8.736;2023-01-23T10:29:48;21.80;;;9.30;;
72117;SDS011;59992;47.490;8.736;2023-01-23T10:32:25;22.40;;;9.90;;
72117;SDS011;59992;47.490;8.736;2023-01-23T10:34:57;18.40;;;7.90;;
72117;SDS011;59992;47.490;8.736;2023-01-23T10:37:35;21.70;;;9.20;;
72117;SDS011;59992;47.490;8.736;2023-01-23T10:40:13;23.10;;;9.50;;
72117;SDS011;59992;47.490;8.736;2023-01-23T10:43:09;20.90;;;8.90;;
72117;SDS011;59992;47.490;8.736;2023-01-23T10:45:44;17.80;;;7.30;;
72117;SDS011;59992;47.490;8.736;2023-01-23T10:48:28;20.80;;;9.10;;
72117;SDS011;59992;47.490;8.736;2023-01-23T10:51:24;22.00;;;9.20;;
72117;SDS011;59992;47.490;8.736;2023-01-23T10:54:05;22.10;;;9.30;;
72117;SDS011;59992;47.490;8.736;2023-01-23T10:56:44;22.60;;;9.10;;
72117;SDS011;59992;47.490;8.736;2023-01-23T10:59:21;19.90;;;8.10;;
72117;SDS011;59992;47.490;8.736;2023-01-23T11:02:00;20.50;;;9.30;;
72117;SDS011;59992;47.490;8.736;2023-01-23T11:04:47;29.10;;;9.50;;
72117;SDS011;59992;47.490;8.736;2023-01-23T11:07:19;20.50;;;8.10;;
72117;SDS011;59992;47.490;8.736;2023-01-23T11:09:54;20.90;;;7.30;;
72117;SDS011;59992;47.490;8.736;2023-01-23T11:12:26;25.50;;;10.60;;
72117;SDS011;59992;47.490;8.736;2023-01-23T11:17:52;20.80;;;8.60;;
72117;SDS011;59992;47.490;8.736;2023-01-23T11:20:28;20.20;;;8.40;;
72117;SDS011;59992;47.490;8.736;2023-01-23T11:23:02;22.10;;;9.00;;
72117;SDS011;59992;47.490;8.736;2023-01-23T11:25:42;15.30;;;7.20;;
72117;SDS011;59992;47.490;8.736;2023-01-23T11:28:19;24.20;;;9.20;;
72117;SDS011;59992;47.490;8.736;2023-01-23T11:30:54;25.40;;;10.30;;
72117;SDS011;59992;47.490;8.736;2023-01-23T11:33:32;21.40;;;9.30;;
72117;SDS011;59992;47.490;8.736;2023-01-23T11:36:11;25.10;;;10.50;;
72117;SDS011;59992;47.490;8.736;2023-01-23T11:38:56;24.40;;;9.80;;
72117;SDS011;59992;47.490;8.736;2023-01-23T11:41:28;24.30;;;9.30;;
72117;SDS011;59992;47.490;8.736;2023-01-23T11:44:02;21.10;;;8.70;;
72117;SDS011;59992;47.490;8.736;2023-01-23T11:46:39;19.50;;;7.80;;
72117;SDS011;59992;47.490;8.736;2023-01-23T11:49:25;22.70;;;10.00;;
72117;SDS011;59992;47.490;8.736;2023-01-23T11:52:15;22.00;;;10.40;;
72117;SDS011;59992;47.490;8.736;2023-01-23T11:55:02;19.30;;;8.10;;
72117;SDS011;59992;47.490;8.736;2023-01-23T11:57:51;23.00;;;8.80;;
72117;SDS011;59992;47.490;8.736;2023-01-23T12:00:52;19.10;;;8.50;;
72117;SDS011;59992;47.490;8.736;2023-01-23T12:03:29;23.60;;;9.00;;
72117;SDS011;59992;47.490;8.736;2023-01-23T12:06:34;20.90;;;8.90;;
72117;SDS011;59992;47.490;8.736;2023-01-23T12:09:22;23.20;;;11.30;;
72117;SDS011;59992;47.490;8.736;2023-01-23T12:11:58;22.70;;;9.20;;
72117;SDS011;59992;47.490;8.736;2023-01-23T12:14:41;19.50;;;7.50;;
72117;SDS011;59992;47.490;8.736;2023-01-23T12:17:25;24.80;;;8.70;;
72117;SDS011;59992;47.490;8.736;2023-01-23T12:20:05;21.40;;;9.10;;
72117;SDS011;59992;47.490;8.736;2023-01-23T12:22:49;17.10;;;7.30;;
72117;SDS011;59992;47.490;8.736;2023-01-23T12:25:34;19.60;;;8.00;;
72117;SDS011;59992;47.490;8.736;2023-01-23T12:28:10;20.50;;;9.10;;
72117;SDS011;59992;47.490;8.736;2023-01-23T12:31:01;18.90;;;8.00;;
72117;SDS011;59992;47.490;8.736;2023-01-23T12:33:43;19.90;;;8.50;;
72117;SDS011;59992;47.490;8.736;2023-01-23T12:36:30;19.60;;;8.20;;
72117;SDS011;59992;47.490;8.736;2023-01-23T12:39:14;20.60;;;8.60;;
72117;SDS011;59992;47.490;8.736;2023-01-23T12:41:52;18.80;;;8.10;;
72117;SDS011;59992;47.490;8.736;2023-01-23T12:44:31;19.50;;;9.20;;
72117;SDS011;59992;47.490;8.736;2023-01-23T12:47:05;21.30;;;9.40;;
72117;SDS011;59992;47.490;8.736;2023-01-23T12:49:42;20.00;;;8.40;;
72117;SDS011;59992;47.490;8.736;2023-01-23T12:52:19;18.80;;;8.90;;
72117;SDS011;59992;47.490;8.736;2023-01-23T12:54:52;19.80;;;8.70;;
72117;SDS011;59992;47.490;8.736;2023-01-23T12:57:30;17.70;;;8.10;;
72117;SDS011;59992;47.490;8.736;2023-01-23T13:00:11;17.70;;;8.70;;
72117;SDS011;59992;47.490;8.736;2023-01-23T13:02:54;21.20;;;9.20;;
72117;SDS011;59992;47.490;8.736;2023-01-23T13:05:38;19.30;;;8.40;;
72117;SDS011;59992;47.490;8.736;2023-01-23T13:08:17;16.90;;;8.10;;
72117;SDS011;59992;47.490;8.736;2023-01-23T13:10:58;20.00;;;9.30;;
72117;SDS011;59992;47.490;8.736;2023-01-23T13:13:56;18.50;;;9.00;;
72117;SDS011;59992;47.490;8.736;2023-01-23T13:16:26;16.70;;;8.70;;
72117;SDS011;59992;47.490;8.736;2023-01-23T13:18:57;23.00;;;9.70;;
72117;SDS011;59992;47.490;8.736;2023-01-23T13:22:02;20.50;;;9.60;;
72117;SDS011;59992;47.490;8.736;2023-01-23T13:24:42;20.90;;;9.50;;
72117;SDS011;59992;47.490;8.736;2023-01-23T13:27:42;21.10;;;9.80;;
72117;SDS011;59992;47.490;8.736;2023-01-23T13:51:15;21.10;;;9.40;;
72117;SDS011;59992;47.490;8.736;2023-01-23T13:53:47;25.60;;;11.20;;
72117;SDS011;59992;47.490;8.736;2023-01-23T13:56:37;24.90;;;10.90;;
72117;SDS011;59992;47.490;8.736;2023-01-23T13:59:23;22.70;;;9.80;;
72117;SDS011;59992;47.490;8.736;2023-01-23T14:02:00;22.50;;;10.50;;
72117;SDS011;59992;47.490;8.736;2023-01-23T14:05:00;21.50;;;10.30;;
72117;SDS011;59992;47.490;8.736;2023-01-23T14:07:40;26.70;;;11.70;;
72117;SDS011;59992;47.490;8.736;2023-01-23T14:10:22;24.80;;;10.50;;
72117;SDS011;59992;47.490;8.736;2023-01-23T14:13:01;24.70;;;10.30;;
72117;SDS011;59992;47.490;8.736;2023-01-23T14:15:38;22.10;;;9.00;;
72117;SDS011;59992;47.490;8.736;2023-01-23T14:18:31;25.10;;;11.00;;
72117;SDS011;59992;47.490;8.736;2023-01-23T14:21:05;24.10;;;10.80;;
72117;SDS011;59992;47.490;8.736;2023-01-23T14:23:47;24.10;;;10.50;;
72117;SDS011;59992;47.490;8.736;2023-01-23T14:26:19;23.00;;;10.20;;
72117;SDS011;59992;47.490;8.736;2023-01-23T14:28:53;21.20;;;9.40;;
72117;SDS011;59992;47.490;8.736;2023-01-23T14:31:25;22.80;;;9.40;;
72117;SDS011;59992;47.490;8.736;2023-01-23T14:33:58;27.10;;;9.60;;
72117;SDS011;59992;47.490;8.736;2023-01-23T14:36:29;27.70;;;13.10;;
72117;SDS011;59992;47.490;8.736;2023-01-23T14:39:02;27.60;;;11.80;;
72117;SDS011;59992;47.490;8.736;2023-01-23T14:41:32;24.60;;;11.10;;
72117;SDS011;59992;47.490;8.736;2023-01-23T14:44:08;23.50;;;10.70;;
72117;SDS011;59992;47.490;8.736;2023-01-23T14:46:47;23.20;;;10.70;;
72117;SDS011;59992;47.490;8.736;2023-01-23T14:49:21;21.90;;;10.20;;
72117;SDS011;59992;47.490;8.736;2023-01-23T14:51:57;24.00;;;10.30;;
72117;SDS011;59992;47.490;8.736;2023-01-23T14:54:29;22.00;;;9.80;;
72117;SDS011;59992;47.490;8.736;2023-01-23T14:57:01;22.20;;;9.50;;
72117;SDS011;59992;47.490;8.736;2023-01-23T14:59:36;26.70;;;11.90;;
72117;SDS011;59992;47.490;8.736;2023-01-23T15:05:06;23.40;;;9.80;;
72117;SDS011;59992;47.490;8.736;2023-01-23T15:07:43;25.10;;;10.80;;
72117;SDS011;59992;47.490;8.736;2023-01-23T15:10:18;27.10;;;11.70;;
72117;SDS011;59992;47.490;8.736;2023-01-23T15:12:50;27.60;;;13.10;;
72117;SDS011;59992;47.490;8.736;2023-01-23T15:15:24;22.50;;;10.40;;
72117;SDS011;59992;47.490;8.736;2023-01-23T15:17:54;22.00;;;9.60;;
72117;SDS011;59992;47.490;8.736;2023-01-23T15:20:31;25.00;;;11.10;;
72117;SDS011;59992;47.490;8.736;2023-01-23T15:23:19;27.10;;;13.00;;
72117;SDS011;59992;47.490;8.736;2023-01-23T15:26:08;27.00;;;10.40;;
72117;SDS011;59992;47.490;8.736;2023-01-23T15:28:50;28.00;;;12.50;;
72117;SDS011;59992;47.490;8.736;2023-01-23T15:31:21;27.00;;;11.50;;
72117;SDS011;59992;47.490;8.736;2023-01-23T15:33:53;22.50;;;9.70;;
72117;SDS011;59992;47.490;8.736;2023-01-23T15:36:45;20.80;;;8.70;;
72117;SDS011;59992;47.490;8.736;2023-01-23T15:39:17;24.90;;;10.40;;
72117;SDS011;59992;47.490;8.736;2023-01-23T15:41:50;23.30;;;10.00;;